sensor_id;sensor_type;location;lat;lon;timestamp;temperature;humidity
47338;DHT22;33069;51.970;5.892;2024-02-23T00:00:26;4.30;89.20
47338;DHT22;33069;51.970;5.892;2024-02-23T00:03:12;4.30;89.10
47338;DHT22;33069;51.970;5.892;2024-02-23T00:05:59;4.40;89.20
47338;DHT22;33069;51.970;5.892;2024-02-23T00:08:45;4.30;89.20
47338;DHT22;33069;51.970;5.892;2024-02-23T00:11:31;4.30;88.00
47338;DHT22;33069;51.970;5.892;2024-02-23T00:14:19;4.40;88.00
47338;DHT22;33069;51.970;5.892;2024-02-23T00:17:06;4.50;88.10
47338;DHT22;33069;51.970;5.892;2024-02-23T00:19:52;4.50;88.50
47338;DHT22;33069;51.970;5.892;2024-02-23T00:22:39;4.40;88.90
47338;DHT22;33069;51.970;5.892;2024-02-23T00:25:25;4.50;89.00
47338;DHT22;33069;51.970;5.892;2024-02-23T00:28:10;4.50;89.20
47338;DHT22;33069;51.970;5.892;2024-02-23T00:30:56;4.50;89.30
47338;DHT22;33069;51.970;5.892;2024-02-23T00:33:42;4.50;89.40
47338;DHT22;33069;51.970;5.892;2024-02-23T00:36:29;4.50;89.40
47338;DHT22;33069;51.970;5.892;2024-02-23T00:39:15;4.40;89.30
47338;DHT22;33069;51.970;5.892;2024-02-23T00:42:01;4.40;89.30
47338;DHT22;33069;51.970;5.892;2024-02-23T00:44:46;4.50;89.30
47338;DHT22;33069;51.970;5.892;2024-02-23T00:47:32;4.50;89.30
47338;DHT22;33069;51.970;5.892;2024-02-23T00:50:21;4.50;89.30
47338;DHT22;33069;51.970;5.892;2024-02-23T00:53:07;4.50;89.20
47338;DHT22;33069;51.970;5.892;2024-02-23T00:55:53;4.50;88.60
47338;DHT22;33069;51.970;5.892;2024-02-23T00:58:39;4.10;88.00
47338;DHT22;33069;51.970;5.892;2024-02-23T01:01:25;4.00;87.90
47338;DHT22;33069;51.970;5.892;2024-02-23T01:04:12;4.00;88.30
47338;DHT22;33069;51.970;5.892;2024-02-23T01:06:58;4.20;88.50
47338;DHT22;33069;51.970;5.892;2024-02-23T01:09:45;4.40;88.60
47338;DHT22;33069;51.970;5.892;2024-02-23T01:12:31;4.50;88.80
47338;DHT22;33069;51.970;5.892;2024-02-23T01:15:17;4.50;88.80
47338;DHT22;33069;51.970;5.892;2024-02-23T01:18:04;4.60;89.00
47338;DHT22;33069;51.970;5.892;2024-02-23T01:20:51;4.60;89.00
47338;DHT22;33069;51.970;5.892;2024-02-23T01:23:37;4.60;89.10
47338;DHT22;33069;51.970;5.892;2024-02-23T01:26:23;4.70;89.10
47338;DHT22;33069;51.970;5.892;2024-02-23T01:29:09;4.70;89.10
47338;DHT22;33069;51.970;5.892;2024-02-23T01:31:55;4.70;89.10
47338;DHT22;33069;51.970;5.892;2024-02-23T01:34:41;4.80;89.00
47338;DHT22;33069;51.970;5.892;2024-02-23T01:37:27;4.80;89.00
47338;DHT22;33069;51.970;5.892;2024-02-23T01:40:13;4.80;88.90
47338;DHT22;33069;51.970;5.892;2024-02-23T01:43:03;4.70;88.80
47338;DHT22;33069;51.970;5.892;2024-02-23T01:45:50;4.70;88.80
47338;DHT22;33069;51.970;5.892;2024-02-23T01:48:36;4.70;88.80
47338;DHT22;33069;51.970;5.892;2024-02-23T01:51:22;4.60;88.50
47338;DHT22;33069;51.970;5.892;2024-02-23T01:54:08;4.60;88.40
47338;DHT22;33069;51.970;5.892;2024-02-23T01:56:55;4.60;88.20
47338;DHT22;33069;51.970;5.892;2024-02-23T01:59:42;4.60;88.00
47338;DHT22;33069;51.970;5.892;2024-02-23T02:02:28;4.60;87.90
47338;DHT22;33069;51.970;5.892;2024-02-23T02:05:15;4.60;87.80
47338;DHT22;33069;51.970;5.892;2024-02-23T02:08:01;4.50;87.60
47338;DHT22;33069;51.970;5.892;2024-02-23T02:10:47;4.50;87.50
47338;DHT22;33069;51.970;5.892;2024-02-23T02:13:33;4.50;87.40
47338;DHT22;33069;51.970;5.892;2024-02-23T02:16:19;4.50;87.30
47338;DHT22;33069;51.970;5.892;2024-02-23T02:19:05;4.50;87.40
47338;DHT22;33069;51.970;5.892;2024-02-23T02:21:51;4.50;87.30
47338;DHT22;33069;51.970;5.892;2024-02-23T02:24:37;4.50;87.20
47338;DHT22;33069;51.970;5.892;2024-02-23T02:27:24;4.40;87.10
47338;DHT22;33069;51.970;5.892;2024-02-23T02:30:12;4.50;87.00
47338;DHT22;33069;51.970;5.892;2024-02-23T02:32:58;4.50;86.70
47338;DHT22;33069;51.970;5.892;2024-02-23T02:35:44;4.50;86.40
47338;DHT22;33069;51.970;5.892;2024-02-23T02:38:29;4.50;86.30
47338;DHT22;33069;51.970;5.892;2024-02-23T02:41:17;4.50;86.30
47338;DHT22;33069;51.970;5.892;2024-02-23T02:44:03;4.50;86.20
47338;DHT22;33069;51.970;5.892;2024-02-23T02:46:49;4.50;86.10
47338;DHT22;33069;51.970;5.892;2024-02-23T02:49:35;4.60;86.00
47338;DHT22;33069;51.970;5.892;2024-02-23T02:52:21;4.60;85.90
47338;DHT22;33069;51.970;5.892;2024-02-23T02:55:09;4.60;85.80
47338;DHT22;33069;51.970;5.892;2024-02-23T02:57:54;4.70;85.60
47338;DHT22;33069;51.970;5.892;2024-02-23T03:00:40;4.60;85.50
47338;DHT22;33069;51.970;5.892;2024-02-23T03:03:26;4.70;85.30
47338;DHT22;33069;51.970;5.892;2024-02-23T03:06:12;4.70;85.20
47338;DHT22;33069;51.970;5.892;2024-02-23T03:08:58;4.60;85.30
47338;DHT22;33069;51.970;5.892;2024-02-23T03:11:44;4.70;85.20
47338;DHT22;33069;51.970;5.892;2024-02-23T03:14:30;4.70;84.90
47338;DHT22;33069;51.970;5.892;2024-02-23T03:17:16;4.70;84.70
47338;DHT22;33069;51.970;5.892;2024-02-23T03:20:04;4.70;84.20
47338;DHT22;33069;51.970;5.892;2024-02-23T03:22:56;4.70;84.00
47338;DHT22;33069;51.970;5.892;2024-02-23T03:25:42;4.70;84.10
47338;DHT22;33069;51.970;5.892;2024-02-23T03:28:28;4.60;84.20
47338;DHT22;33069;51.970;5.892;2024-02-23T03:31:14;4.60;84.20
47338;DHT22;33069;51.970;5.892;2024-02-23T03:34:01;4.70;84.30
47338;DHT22;33069;51.970;5.892;2024-02-23T03:36:47;4.70;84.20
47338;DHT22;33069;51.970;5.892;2024-02-23T03:39:33;4.70;83.90
47338;DHT22;33069;51.970;5.892;2024-02-23T03:42:19;4.70;84.10
47338;DHT22;33069;51.970;5.892;2024-02-23T03:45:06;4.70;84.10
47338;DHT22;33069;51.970;5.892;2024-02-23T03:47:52;4.70;84.20
47338;DHT22;33069;51.970;5.892;2024-02-23T03:50:38;4.70;84.40
47338;DHT22;33069;51.970;5.892;2024-02-23T03:53:24;4.80;84.10
47338;DHT22;33069;51.970;5.892;2024-02-23T03:56:10;4.70;83.90
47338;DHT22;33069;51.970;5.892;2024-02-23T03:58:56;4.70;84.00
47338;DHT22;33069;51.970;5.892;2024-02-23T04:01:41;4.70;84.10
47338;DHT22;33069;51.970;5.892;2024-02-23T04:04:28;4.60;84.10
47338;DHT22;33069;51.970;5.892;2024-02-23T04:07:14;4.60;84.20
47338;DHT22;33069;51.970;5.892;2024-02-23T04:10:00;4.50;84.20
47338;DHT22;33069;51.970;5.892;2024-02-23T04:12:47;4.60;84.20
47338;DHT22;33069;51.970;5.892;2024-02-23T04:15:33;4.50;84.40
47338;DHT22;33069;51.970;5.892;2024-02-23T04:18:19;4.60;84.50
47338;DHT22;33069;51.970;5.892;2024-02-23T04:21:05;4.70;84.40
47338;DHT22;33069;51.970;5.892;2024-02-23T04:23:51;4.60;84.40
47338;DHT22;33069;51.970;5.892;2024-02-23T04:26:37;4.60;84.40
47338;DHT22;33069;51.970;5.892;2024-02-23T04:29:23;4.50;84.50
47338;DHT22;33069;51.970;5.892;2024-02-23T04:32:09;4.50;84.50
47338;DHT22;33069;51.970;5.892;2024-02-23T04:34:55;4.50;84.50
47338;DHT22;33069;51.970;5.892;2024-02-23T04:37:44;4.50;84.70
47338;DHT22;33069;51.970;5.892;2024-02-23T04:40:30;4.60;84.60
47338;DHT22;33069;51.970;5.892;2024-02-23T04:43:16;4.60;84.40
47338;DHT22;33069;51.970;5.892;2024-02-23T04:46:03;4.60;84.40
47338;DHT22;33069;51.970;5.892;2024-02-23T04:48:48;4.60;84.40
47338;DHT22;33069;51.970;5.892;2024-02-23T04:51:34;4.50;84.30
47338;DHT22;33069;51.970;5.892;2024-02-23T04:54:20;4.60;84.40
47338;DHT22;33069;51.970;5.892;2024-02-23T04:57:06;4.50;84.50
47338;DHT22;33069;51.970;5.892;2024-02-23T04:59:52;4.60;84.50
47338;DHT22;33069;51.970;5.892;2024-02-23T05:02:38;4.60;84.40
47338;DHT22;33069;51.970;5.892;2024-02-23T05:05:24;4.70;84.30
47338;DHT22;33069;51.970;5.892;2024-02-23T05:08:10;4.70;84.30
47338;DHT22;33069;51.970;5.892;2024-02-23T05:10:57;4.70;84.20
47338;DHT22;33069;51.970;5.892;2024-02-23T05:13:43;4.80;84.10
47338;DHT22;33069;51.970;5.892;2024-02-23T05:16:29;4.80;84.10
47338;DHT22;33069;51.970;5.892;2024-02-23T05:19:14;4.90;84.00
47338;DHT22;33069;51.970;5.892;2024-02-23T05:22:00;4.90;84.00
47338;DHT22;33069;51.970;5.892;2024-02-23T05:24:46;5.00;83.90
47338;DHT22;33069;51.970;5.892;2024-02-23T05:27:32;5.00;83.90
47338;DHT22;33069;51.970;5.892;2024-02-23T05:30:18;5.00;83.70
47338;DHT22;33069;51.970;5.892;2024-02-23T05:33:04;5.10;83.60
47338;DHT22;33069;51.970;5.892;2024-02-23T05:35:50;5.10;83.60
47338;DHT22;33069;51.970;5.892;2024-02-23T05:38:36;5.10;83.50
47338;DHT22;33069;51.970;5.892;2024-02-23T05:41:22;5.20;83.10
47338;DHT22;33069;51.970;5.892;2024-02-23T05:44:08;5.20;83.00
47338;DHT22;33069;51.970;5.892;2024-02-23T05:46:54;5.20;82.90
47338;DHT22;33069;51.970;5.892;2024-02-23T05:49:40;5.20;82.90
47338;DHT22;33069;51.970;5.892;2024-02-23T05:52:26;5.20;82.70
47338;DHT22;33069;51.970;5.892;2024-02-23T05:55:12;5.20;82.60
47338;DHT22;33069;51.970;5.892;2024-02-23T05:57:59;5.30;82.50
47338;DHT22;33069;51.970;5.892;2024-02-23T06:00:45;5.30;82.60
47338;DHT22;33069;51.970;5.892;2024-02-23T06:03:31;5.30;82.30
47338;DHT22;33069;51.970;5.892;2024-02-23T06:06:17;5.30;82.10
47338;DHT22;33069;51.970;5.892;2024-02-23T06:09:03;5.40;81.90
47338;DHT22;33069;51.970;5.892;2024-02-23T06:11:49;5.40;81.90
47338;DHT22;33069;51.970;5.892;2024-02-23T06:14:35;5.40;81.70
47338;DHT22;33069;51.970;5.892;2024-02-23T06:17:22;5.30;81.60
47338;DHT22;33069;51.970;5.892;2024-02-23T06:20:09;5.30;81.60
47338;DHT22;33069;51.970;5.892;2024-02-23T06:22:56;5.30;81.70
47338;DHT22;33069;51.970;5.892;2024-02-23T06:25:42;5.20;81.70
47338;DHT22;33069;51.970;5.892;2024-02-23T06:28:28;5.30;81.70
47338;DHT22;33069;51.970;5.892;2024-02-23T06:31:13;5.30;81.70
47338;DHT22;33069;51.970;5.892;2024-02-23T06:33:59;5.30;81.70
47338;DHT22;33069;51.970;5.892;2024-02-23T06:36:46;5.20;81.50
47338;DHT22;33069;51.970;5.892;2024-02-23T06:39:31;5.20;81.40
47338;DHT22;33069;51.970;5.892;2024-02-23T06:42:17;5.30;81.50
47338;DHT22;33069;51.970;5.892;2024-02-23T06:45:04;5.30;81.20
47338;DHT22;33069;51.970;5.892;2024-02-23T06:47:50;5.40;81.40
47338;DHT22;33069;51.970;5.892;2024-02-23T06:50:36;5.40;81.10
47338;DHT22;33069;51.970;5.892;2024-02-23T06:53:22;5.50;81.10
47338;DHT22;33069;51.970;5.892;2024-02-23T06:56:08;5.50;81.00
47338;DHT22;33069;51.970;5.892;2024-02-23T06:58:54;5.50;81.20
47338;DHT22;33069;51.970;5.892;2024-02-23T07:01:50;5.60;81.10
47338;DHT22;33069;51.970;5.892;2024-02-23T07:04:36;5.60;81.20
47338;DHT22;33069;51.970;5.892;2024-02-23T07:07:22;5.60;80.80
47338;DHT22;33069;51.970;5.892;2024-02-23T07:10:09;5.60;80.50
47338;DHT22;33069;51.970;5.892;2024-02-23T07:12:56;5.70;80.30
47338;DHT22;33069;51.970;5.892;2024-02-23T07:15:43;5.70;80.30
47338;DHT22;33069;51.970;5.892;2024-02-23T07:18:29;5.80;79.80
47338;DHT22;33069;51.970;5.892;2024-02-23T07:21:18;5.80;79.70
47338;DHT22;33069;51.970;5.892;2024-02-23T07:24:05;5.80;79.70
47338;DHT22;33069;51.970;5.892;2024-02-23T07:26:51;5.80;79.00
47338;DHT22;33069;51.970;5.892;2024-02-23T07:29:36;5.80;78.70
47338;DHT22;33069;51.970;5.892;2024-02-23T07:32:22;5.80;78.20
47338;DHT22;33069;51.970;5.892;2024-02-23T07:35:09;5.90;78.00
47338;DHT22;33069;51.970;5.892;2024-02-23T07:37:55;6.00;78.00
47338;DHT22;33069;51.970;5.892;2024-02-23T07:40:41;6.00;78.20
47338;DHT22;33069;51.970;5.892;2024-02-23T07:43:27;6.00;78.10
47338;DHT22;33069;51.970;5.892;2024-02-23T07:46:15;6.00;77.80
47338;DHT22;33069;51.970;5.892;2024-02-23T07:49:02;6.10;77.50
47338;DHT22;33069;51.970;5.892;2024-02-23T07:51:48;6.10;77.60
47338;DHT22;33069;51.970;5.892;2024-02-23T07:54:34;6.10;77.70
47338;DHT22;33069;51.970;5.892;2024-02-23T07:57:21;6.10;77.00
47338;DHT22;33069;51.970;5.892;2024-02-23T08:00:07;6.10;76.10
47338;DHT22;33069;51.970;5.892;2024-02-23T08:02:55;6.20;76.70
47338;DHT22;33069;51.970;5.892;2024-02-23T08:05:45;6.20;76.00
47338;DHT22;33069;51.970;5.892;2024-02-23T08:08:31;6.30;76.10
47338;DHT22;33069;51.970;5.892;2024-02-23T08:11:20;6.30;75.60
47338;DHT22;33069;51.970;5.892;2024-02-23T08:14:06;6.30;75.20
47338;DHT22;33069;51.970;5.892;2024-02-23T08:16:52;6.50;75.40
47338;DHT22;33069;51.970;5.892;2024-02-23T08:19:38;6.60;75.70
47338;DHT22;33069;51.970;5.892;2024-02-23T08:22:24;6.60;75.10
47338;DHT22;33069;51.970;5.892;2024-02-23T08:25:10;6.50;75.20
47338;DHT22;33069;51.970;5.892;2024-02-23T08:27:56;6.50;75.00
47338;DHT22;33069;51.970;5.892;2024-02-23T08:30:43;6.40;74.90
47338;DHT22;33069;51.970;5.892;2024-02-23T08:33:29;6.50;75.80
47338;DHT22;33069;51.970;5.892;2024-02-23T08:36:15;6.50;74.80
47338;DHT22;33069;51.970;5.892;2024-02-23T08:39:01;6.50;75.40
47338;DHT22;33069;51.970;5.892;2024-02-23T08:41:47;6.60;75.20
47338;DHT22;33069;51.970;5.892;2024-02-23T08:44:33;6.60;75.00
47338;DHT22;33069;51.970;5.892;2024-02-23T08:47:19;6.60;74.60
47338;DHT22;33069;51.970;5.892;2024-02-23T08:50:06;6.70;75.00
47338;DHT22;33069;51.970;5.892;2024-02-23T08:52:52;6.80;75.20
47338;DHT22;33069;51.970;5.892;2024-02-23T08:55:38;7.00;74.30
47338;DHT22;33069;51.970;5.892;2024-02-23T08:58:24;7.10;74.40
47338;DHT22;33069;51.970;5.892;2024-02-23T09:01:10;7.20;73.90
47338;DHT22;33069;51.970;5.892;2024-02-23T09:03:56;7.10;73.10
47338;DHT22;33069;51.970;5.892;2024-02-23T09:06:42;7.10;73.30
47338;DHT22;33069;51.970;5.892;2024-02-23T09:09:28;7.10;73.20
47338;DHT22;33069;51.970;5.892;2024-02-23T09:12:15;7.10;73.80
47338;DHT22;33069;51.970;5.892;2024-02-23T09:15:01;7.00;74.30
47338;DHT22;33069;51.970;5.892;2024-02-23T09:17:48;7.00;73.70
47338;DHT22;33069;51.970;5.892;2024-02-23T09:20:34;6.90;73.60
47338;DHT22;33069;51.970;5.892;2024-02-23T09:23:20;6.90;73.50
47338;DHT22;33069;51.970;5.892;2024-02-23T09:26:10;7.00;73.90
47338;DHT22;33069;51.970;5.892;2024-02-23T09:28:58;7.00;73.90
47338;DHT22;33069;51.970;5.892;2024-02-23T09:31:44;7.00;73.70
47338;DHT22;33069;51.970;5.892;2024-02-23T09:34:30;7.00;73.90
47338;DHT22;33069;51.970;5.892;2024-02-23T09:37:16;6.90;74.30
47338;DHT22;33069;51.970;5.892;2024-02-23T09:40:02;7.00;73.90
47338;DHT22;33069;51.970;5.892;2024-02-23T09:42:56;6.90;73.90
47338;DHT22;33069;51.970;5.892;2024-02-23T09:45:42;6.90;73.90
47338;DHT22;33069;51.970;5.892;2024-02-23T09:48:30;7.00;74.20
47338;DHT22;33069;51.970;5.892;2024-02-23T09:51:19;7.10;74.20
47338;DHT22;33069;51.970;5.892;2024-02-23T09:54:06;7.20;74.40
47338;DHT22;33069;51.970;5.892;2024-02-23T09:56:53;7.20;74.40
47338;DHT22;33069;51.970;5.892;2024-02-23T09:59:39;7.20;74.40
47338;DHT22;33069;51.970;5.892;2024-02-23T10:02:25;7.30;73.60
47338;DHT22;33069;51.970;5.892;2024-02-23T10:05:11;7.40;74.10
47338;DHT22;33069;51.970;5.892;2024-02-23T10:08:00;7.50;73.90
47338;DHT22;33069;51.970;5.892;2024-02-23T10:10:46;7.50;74.20
47338;DHT22;33069;51.970;5.892;2024-02-23T10:13:37;7.60;73.90
47338;DHT22;33069;51.970;5.892;2024-02-23T10:16:23;7.60;74.00
47338;DHT22;33069;51.970;5.892;2024-02-23T10:19:09;7.70;74.20
47338;DHT22;33069;51.970;5.892;2024-02-23T10:21:56;7.50;74.20
47338;DHT22;33069;51.970;5.892;2024-02-23T10:24:42;7.40;75.30
47338;DHT22;33069;51.970;5.892;2024-02-23T10:27:29;7.20;76.20
47338;DHT22;33069;51.970;5.892;2024-02-23T10:30:15;7.20;76.60
47338;DHT22;33069;51.970;5.892;2024-02-23T10:33:01;7.10;76.70
47338;DHT22;33069;51.970;5.892;2024-02-23T10:35:47;7.10;76.80
47338;DHT22;33069;51.970;5.892;2024-02-23T10:38:35;7.20;77.40
47338;DHT22;33069;51.970;5.892;2024-02-23T10:41:23;7.00;76.90
47338;DHT22;33069;51.970;5.892;2024-02-23T10:44:11;6.90;77.50
47338;DHT22;33069;51.970;5.892;2024-02-23T10:46:58;6.90;78.50
47338;DHT22;33069;51.970;5.892;2024-02-23T10:49:48;6.90;79.30
47338;DHT22;33069;51.970;5.892;2024-02-23T10:52:35;7.20;78.60
47338;DHT22;33069;51.970;5.892;2024-02-23T10:55:21;7.20;77.70
47338;DHT22;33069;51.970;5.892;2024-02-23T10:58:09;7.30;76.50
47338;DHT22;33069;51.970;5.892;2024-02-23T11:01:02;7.40;76.10
47338;DHT22;33069;51.970;5.892;2024-02-23T11:03:49;7.50;76.50
47338;DHT22;33069;51.970;5.892;2024-02-23T11:06:36;7.50;75.80
47338;DHT22;33069;51.970;5.892;2024-02-23T11:09:23;7.40;74.80
47338;DHT22;33069;51.970;5.892;2024-02-23T11:12:10;7.40;75.10
47338;DHT22;33069;51.970;5.892;2024-02-23T11:14:57;7.40;75.10
47338;DHT22;33069;51.970;5.892;2024-02-23T11:17:49;7.40;75.30
47338;DHT22;33069;51.970;5.892;2024-02-23T11:20:37;7.40;75.30
47338;DHT22;33069;51.970;5.892;2024-02-23T11:23:23;7.40;75.20
47338;DHT22;33069;51.970;5.892;2024-02-23T11:26:10;7.30;74.70
47338;DHT22;33069;51.970;5.892;2024-02-23T11:28:56;7.30;75.00
47338;DHT22;33069;51.970;5.892;2024-02-23T11:31:47;7.30;74.90
47338;DHT22;33069;51.970;5.892;2024-02-23T11:34:34;7.40;75.30
47338;DHT22;33069;51.970;5.892;2024-02-23T11:37:20;7.50;75.60
47338;DHT22;33069;51.970;5.892;2024-02-23T11:40:07;7.60;75.60
47338;DHT22;33069;51.970;5.892;2024-02-23T11:42:55;7.50;75.20
47338;DHT22;33069;51.970;5.892;2024-02-23T11:45:41;7.50;75.20
47338;DHT22;33069;51.970;5.892;2024-02-23T11:48:27;7.50;75.00
47338;DHT22;33069;51.970;5.892;2024-02-23T11:51:14;7.60;75.20
47338;DHT22;33069;51.970;5.892;2024-02-23T11:54:01;7.70;75.10
47338;DHT22;33069;51.970;5.892;2024-02-23T11:56:47;7.80;75.00
47338;DHT22;33069;51.970;5.892;2024-02-23T11:59:35;7.80;74.50
47338;DHT22;33069;51.970;5.892;2024-02-23T12:02:21;7.70;74.20
47338;DHT22;33069;51.970;5.892;2024-02-23T12:05:07;7.80;74.70
47338;DHT22;33069;51.970;5.892;2024-02-23T12:07:53;7.70;74.30
47338;DHT22;33069;51.970;5.892;2024-02-23T12:10:40;7.70;74.50
47338;DHT22;33069;51.970;5.892;2024-02-23T12:13:26;7.60;74.90
47338;DHT22;33069;51.970;5.892;2024-02-23T12:16:14;7.70;75.00
47338;DHT22;33069;51.970;5.892;2024-02-23T12:19:01;7.60;74.60
47338;DHT22;33069;51.970;5.892;2024-02-23T12:21:47;7.60;74.80
47338;DHT22;33069;51.970;5.892;2024-02-23T12:24:36;7.70;74.80
47338;DHT22;33069;51.970;5.892;2024-02-23T12:27:23;7.70;74.80
47338;DHT22;33069;51.970;5.892;2024-02-23T12:30:15;7.70;75.10
47338;DHT22;33069;51.970;5.892;2024-02-23T12:33:05;7.70;74.90
47338;DHT22;33069;51.970;5.892;2024-02-23T12:35:51;7.70;74.50
47338;DHT22;33069;51.970;5.892;2024-02-23T12:38:39;7.70;74.80
47338;DHT22;33069;51.970;5.892;2024-02-23T12:41:25;7.90;75.10
47338;DHT22;33069;51.970;5.892;2024-02-23T12:44:11;7.90;74.30
47338;DHT22;33069;51.970;5.892;2024-02-23T12:46:57;8.00;73.70
47338;DHT22;33069;51.970;5.892;2024-02-23T12:49:43;8.10;73.80
47338;DHT22;33069;51.970;5.892;2024-02-23T12:52:29;8.10;73.80
47338;DHT22;33069;51.970;5.892;2024-02-23T12:55:15;8.30;73.90
47338;DHT22;33069;51.970;5.892;2024-02-23T12:58:01;8.40;73.70
47338;DHT22;33069;51.970;5.892;2024-02-23T13:00:47;8.40;73.20
47338;DHT22;33069;51.970;5.892;2024-02-23T13:03:34;8.30;73.10
47338;DHT22;33069;51.970;5.892;2024-02-23T13:06:20;8.30;72.90
47338;DHT22;33069;51.970;5.892;2024-02-23T13:09:07;8.40;73.60
47338;DHT22;33069;51.970;5.892;2024-02-23T13:11:54;8.40;73.50
47338;DHT22;33069;51.970;5.892;2024-02-23T13:14:40;8.40;73.00
47338;DHT22;33069;51.970;5.892;2024-02-23T13:17:26;8.60;73.00
47338;DHT22;33069;51.970;5.892;2024-02-23T13:20:12;8.50;73.20
47338;DHT22;33069;51.970;5.892;2024-02-23T13:22:58;8.60;73.20
47338;DHT22;33069;51.970;5.892;2024-02-23T13:25:45;8.80;72.90
47338;DHT22;33069;51.970;5.892;2024-02-23T13:28:31;9.20;72.30
47338;DHT22;33069;51.970;5.892;2024-02-23T13:31:17;9.30;71.40
47338;DHT22;33069;51.970;5.892;2024-02-23T13:34:03;9.60;70.70
47338;DHT22;33069;51.970;5.892;2024-02-23T13:36:49;9.50;69.60
47338;DHT22;33069;51.970;5.892;2024-02-23T13:39:38;9.30;70.30
47338;DHT22;33069;51.970;5.892;2024-02-23T13:42:24;9.20;70.90
47338;DHT22;33069;51.970;5.892;2024-02-23T13:45:10;9.10;70.40
47338;DHT22;33069;51.970;5.892;2024-02-23T13:47:57;9.10;70.20
47338;DHT22;33069;51.970;5.892;2024-02-23T13:50:47;9.20;71.40
47338;DHT22;33069;51.970;5.892;2024-02-23T13:53:33;9.30;71.40
47338;DHT22;33069;51.970;5.892;2024-02-23T13:56:21;9.20;70.80
47338;DHT22;33069;51.970;5.892;2024-02-23T13:59:07;9.20;70.40
47338;DHT22;33069;51.970;5.892;2024-02-23T14:01:53;9.20;70.60
47338;DHT22;33069;51.970;5.892;2024-02-23T14:04:39;9.40;70.70
47338;DHT22;33069;51.970;5.892;2024-02-23T14:07:25;9.50;70.00
47338;DHT22;33069;51.970;5.892;2024-02-23T14:10:11;9.70;70.30
47338;DHT22;33069;51.970;5.892;2024-02-23T14:12:57;10.00;69.90
47338;DHT22;33069;51.970;5.892;2024-02-23T14:15:44;9.80;69.00
47338;DHT22;33069;51.970;5.892;2024-02-23T14:18:32;9.90;69.50
47338;DHT22;33069;51.970;5.892;2024-02-23T14:21:22;10.20;69.20
47338;DHT22;33069;51.970;5.892;2024-02-23T14:24:10;10.10;67.80
47338;DHT22;33069;51.970;5.892;2024-02-23T14:26:56;9.90;68.80
47338;DHT22;33069;51.970;5.892;2024-02-23T14:29:42;9.80;68.80
47338;DHT22;33069;51.970;5.892;2024-02-23T14:32:28;9.70;68.80
47338;DHT22;33069;51.970;5.892;2024-02-23T14:35:15;9.60;69.00
47338;DHT22;33069;51.970;5.892;2024-02-23T14:38:01;9.30;69.40
47338;DHT22;33069;51.970;5.892;2024-02-23T14:40:47;9.30;69.80
47338;DHT22;33069;51.970;5.892;2024-02-23T14:43:33;9.30;70.30
47338;DHT22;33069;51.970;5.892;2024-02-23T14:46:18;9.20;70.80
47338;DHT22;33069;51.970;5.892;2024-02-23T14:49:06;9.10;71.20
47338;DHT22;33069;51.970;5.892;2024-02-23T14:51:52;9.20;71.60
47338;DHT22;33069;51.970;5.892;2024-02-23T14:54:38;9.20;71.80
47338;DHT22;33069;51.970;5.892;2024-02-23T14:57:24;9.10;72.10
47338;DHT22;33069;51.970;5.892;2024-02-23T15:00:11;8.70;72.60
47338;DHT22;33069;51.970;5.892;2024-02-23T15:02:57;8.70;73.60
47338;DHT22;33069;51.970;5.892;2024-02-23T15:05:43;8.60;74.40
47338;DHT22;33069;51.970;5.892;2024-02-23T15:08:29;8.60;75.80
47338;DHT22;33069;51.970;5.892;2024-02-23T15:11:15;8.70;76.60
47338;DHT22;33069;51.970;5.892;2024-02-23T15:14:01;8.70;76.30
47338;DHT22;33069;51.970;5.892;2024-02-23T15:16:47;8.50;76.10
47338;DHT22;33069;51.970;5.892;2024-02-23T15:19:33;8.40;76.30
47338;DHT22;33069;51.970;5.892;2024-02-23T15:22:19;8.50;76.20
47338;DHT22;33069;51.970;5.892;2024-02-23T15:25:05;8.40;76.50
47338;DHT22;33069;51.970;5.892;2024-02-23T15:27:52;8.40;76.90
47338;DHT22;33069;51.970;5.892;2024-02-23T15:30:39;8.30;77.20
47338;DHT22;33069;51.970;5.892;2024-02-23T15:33:25;8.20;77.40
47338;DHT22;33069;51.970;5.892;2024-02-23T15:36:11;8.20;77.80
47338;DHT22;33069;51.970;5.892;2024-02-23T15:38:57;8.20;78.10
47338;DHT22;33069;51.970;5.892;2024-02-23T15:41:48;8.20;78.40
47338;DHT22;33069;51.970;5.892;2024-02-23T15:44:35;8.40;78.10
47338;DHT22;33069;51.970;5.892;2024-02-23T15:47:22;8.30;77.60
47338;DHT22;33069;51.970;5.892;2024-02-23T15:50:08;8.20;78.20
47338;DHT22;33069;51.970;5.892;2024-02-23T15:52:54;8.10;78.50
47338;DHT22;33069;51.970;5.892;2024-02-23T15:55:41;8.20;79.40
47338;DHT22;33069;51.970;5.892;2024-02-23T15:58:27;8.30;80.00
47338;DHT22;33069;51.970;5.892;2024-02-23T16:01:13;8.10;80.10
47338;DHT22;33069;51.970;5.892;2024-02-23T16:03:59;8.00;80.70
47338;DHT22;33069;51.970;5.892;2024-02-23T16:06:45;7.80;81.10
47338;DHT22;33069;51.970;5.892;2024-02-23T16:09:31;7.80;81.70
47338;DHT22;33069;51.970;5.892;2024-02-23T16:12:17;7.70;82.60
47338;DHT22;33069;51.970;5.892;2024-02-23T16:15:03;7.70;83.10
47338;DHT22;33069;51.970;5.892;2024-02-23T16:17:49;7.80;82.90
47338;DHT22;33069;51.970;5.892;2024-02-23T16:20:35;7.70;82.70
47338;DHT22;33069;51.970;5.892;2024-02-23T16:23:21;7.50;82.10
47338;DHT22;33069;51.970;5.892;2024-02-23T16:26:08;7.50;82.00
47338;DHT22;33069;51.970;5.892;2024-02-23T16:28:54;7.70;82.00
47338;DHT22;33069;51.970;5.892;2024-02-23T16:31:41;7.70;81.90
47338;DHT22;33069;51.970;5.892;2024-02-23T16:34:27;7.60;81.20
47338;DHT22;33069;51.970;5.892;2024-02-23T16:37:14;7.70;80.70
47338;DHT22;33069;51.970;5.892;2024-02-23T16:40:00;7.80;80.50
47338;DHT22;33069;51.970;5.892;2024-02-23T16:42:46;7.80;80.30
47338;DHT22;33069;51.970;5.892;2024-02-23T16:45:32;7.70;79.90
47338;DHT22;33069;51.970;5.892;2024-02-23T16:48:18;7.80;79.60
47338;DHT22;33069;51.970;5.892;2024-02-23T16:51:04;7.70;79.30
47338;DHT22;33069;51.970;5.892;2024-02-23T16:53:51;7.70;79.10
47338;DHT22;33069;51.970;5.892;2024-02-23T16:56:37;7.70;79.10
47338;DHT22;33069;51.970;5.892;2024-02-23T16:59:23;7.60;79.00
47338;DHT22;33069;51.970;5.892;2024-02-23T17:02:09;7.60;78.80
47338;DHT22;33069;51.970;5.892;2024-02-23T17:04:55;7.50;78.70
47338;DHT22;33069;51.970;5.892;2024-02-23T17:07:46;7.50;79.20
47338;DHT22;33069;51.970;5.892;2024-02-23T17:10:32;7.60;79.30
47338;DHT22;33069;51.970;5.892;2024-02-23T17:13:18;7.50;79.10
47338;DHT22;33069;51.970;5.892;2024-02-23T17:16:04;7.60;78.90
47338;DHT22;33069;51.970;5.892;2024-02-23T17:18:50;7.60;78.50
47338;DHT22;33069;51.970;5.892;2024-02-23T17:21:36;7.60;78.10
47338;DHT22;33069;51.970;5.892;2024-02-23T17:24:22;7.70;77.80
47338;DHT22;33069;51.970;5.892;2024-02-23T17:27:08;7.60;77.80
47338;DHT22;33069;51.970;5.892;2024-02-23T17:29:54;7.60;77.90
47338;DHT22;33069;51.970;5.892;2024-02-23T17:32:40;7.60;77.60
47338;DHT22;33069;51.970;5.892;2024-02-23T17:35:26;7.70;77.60
47338;DHT22;33069;51.970;5.892;2024-02-23T17:38:12;7.70;77.40
47338;DHT22;33069;51.970;5.892;2024-02-23T17:40:58;7.70;77.10
47338;DHT22;33069;51.970;5.892;2024-02-23T17:43:44;7.70;76.40
47338;DHT22;33069;51.970;5.892;2024-02-23T17:46:31;7.70;76.60